Farmington, Michigan
Current Conditions -  °F | °C
As of 7:34 PM on Tuesday 25 Nov 2014 (Local Time) from KVLL Reporting Station
Overcast Overcast  
Wind Chill: 28°   Ceiling: 2500
Heat Index: 32°   Visibility: 10mi
Dew Point: 24°   Wind: 5mph
Humidity: 70%   Direction: 230°SW
Pressure: 30.16"   Gusts: NA
Location:  42.46°N, 83.38°W
Report Text: KVLL 260034Z AUTO 23004KT 10SM OVC025 00/M05 A3016 RMK AO2 T00021047
Loading
Personal Weather Stations






























Interactive Weather Map New forecast layout! Learn more

10-Day Weather Forecast

Advertisements
Track Severe Weather on mobile